Latest Coastal Weather Observations for Proserpine

IDQ60701

Issued at 6:32 pm EST Saturday 13 August 2022 (issued every 10 minutes, with the page automatically refreshed every 10 minutes)

About coastal observations | Map of coastal stations | Coastal observations for QLD | Marine services | Other Formats
Station Details ID: 033247 Name: PROSERPINE AIRPORT Lat: -20.49 Lon: 148.56 Height: 19.7 m
Data from the previous 72 hours. | See also: Recent months at Proserpine
Date/Time
EST
Wind Sea
Height
m
Swell Vis
km
Cloud Weather Temp
°C
Press
MSL
hPa
Rain since
9am
mm
Dir  Spd
kts
Gust
kts
Height
m
Period
s
Dir
13/06:30pm SSE 7 9 - - - - 10 Clear - 20.1 1014.4 0.0
13/06:00pm SSE 6 8 - - - - 10 - - 21.1 1014.1 0.0
13/05:30pm ESE 5 7 - - - - 10 - - 23.0 1013.9 0.0
13/05:00pm ESE 7 8 - - - - 10 - - 24.0 1013.6 0.0
13/04:30pm ESE 8 11 - - - - 10 - - 24.5 1013.4 0.0
13/04:00pm ESE 9 13 - - - - 10 - - 24.9 1013.4 0.0
13/03:30pm ESE 11 14 - - - - 10 Partly cloudy - 25.4 1013.3 0.0
13/03:00pm ESE 10 13 - - - - 10 Cloudy - 26.1 1013.5 0.0
13/02:30pm ESE 9 12 - - - - 10 Partly cloudy - 25.2 1013.7 0.0
13/02:00pm E 8 12 - - - - 10 Partly cloudy - 27.0 1013.9 0.0
13/01:30pm NE 5 11 - - - - 10 Partly cloudy - 26.7 1014.3 0.0
13/01:00pm NNW 5 8 - - - - 10 - - 26.4 1014.8 0.0
13/12:30pm ENE 4 7 - - - - 10 Partly cloudy - 26.0 1015.4 0.0
13/12:00pm SE 4 8 - - - - 10 Mostly clear - 25.8 1015.7 0.0
13/11:30am SW 4 6 - - - - 10 - - 24.8 1016.3 0.0
13/11:00am S 3 6 - - - - 10 - - 24.6 1016.7 0.0
13/10:30am SE 4 7 - - - - 10 - - 23.4 1017.1 0.0
13/10:00am ESE 3 5 - - - - 10 - - 22.4 1017.3 0.0
13/09:30am SSE 4 6 - - - - 10 - - 22.0 1017.6 0.0
13/09:00am SSW 2 4 - - - - 10 Partly cloudy - 20.4 1017.5 0.0
13/08:30am SW 5 7 - - - - 10 - - 18.5 1017.3 0.0
13/08:00am CALM 0 0 - - - - 10 - - 17.5 1017.1 0.0
13/07:30am SSW 4 5 - - - - 10 Partly cloudy - 16.5 1017.0 0.0
13/07:12am SW 4 5 - - - - 10 Partly cloudy - 16.1 1016.9 0.0
13/07:00am SSW 3 4 - - - - 10 Partly cloudy - 15.8 1016.6 0.0
13/06:30am CALM 0 0 - - - - 10 Partly cloudy - 15.2 1016.4 0.0
13/06:00am CALM 0 0 - - - - 10 Cloudy - 15.5 1016.1 0.0
13/05:32am CALM 0 0 - - - - 10 Partly cloudy - 15.8 1015.9 0.0
13/05:30am CALM 0 1 - - - - 10 Partly cloudy - 15.8 1015.8 0.0
13/05:00am SW 6 7 - - - - 10 Partly cloudy - 15.8 1015.6 0.0
13/04:30am SSW 5 6 - - - - 10 Partly cloudy - 15.6 1015.5 0.0
13/04:21am SSW 5 6 - - - - 10 Partly cloudy - 15.6 1015.5 0.0
13/04:00am SSW 6 7 - - - - 10 - - 15.5 1015.7 0.0
13/03:48am SSW 5 6 - - - - 10 Partly cloudy - 15.6 1015.5 0.0
13/03:30am SSW 5 6 - - - - 10 Partly cloudy - 15.8 1015.7 0.0
13/03:29am SSW 5 6 - - - - 10 Partly cloudy - 15.8 1015.8 0.0
13/03:00am SSW 7 8 - - - - 10 Mostly cloudy - 15.8 1015.9 0.0
13/02:30am SSW 7 9 - - - - 10 - - 15.9 1016.3 0.0
13/02:00am SSW 7 7 - - - - 10 - - 16.0 1016.4 0.0
13/01:30am S 4 5 - - - - 10 Partly cloudy - 15.9 1016.8 0.0
13/01:17am SSW 5 7 - - - - 10 Partly cloudy - 16.1 1017.0 0.0
13/01:00am SSW 6 7 - - - - 10 Partly cloudy - 16.2 1017.3 0.0
13/12:30am SSW 4 4 - - - - 10 Cloudy - 16.2 1017.6 0.0
13/12:00am SSW 3 4 - - - - 10 Cloudy - 16.0 1017.9 0.0
 
Date/Time
EST
Wind Sea
Height
m
Swell Vis
km
Cloud Weather Temp
°C
Press
MSL
hPa
Rain since
9am
mm
Dir  Spd
kts
Gust
kts
Height
m
Period
s
Dir
12/11:54pm SSW 4 5 - - - - 10 Partly cloudy - 15.7 1017.9 0.0
12/11:30pm SSW 3 5 - - - - 10 Partly cloudy - 16.0 1017.8 0.0
12/11:00pm SSW 6 7 - - - - 10 Partly cloudy - 16.4 1018.0 0.0
12/10:31pm SSW 6 8 - - - - 10 Partly cloudy - 16.6 1018.1 0.0
12/10:30pm SSW 6 8 - - - - 10 Partly cloudy - 16.5 1018.0 0.0
12/10:00pm SSW 5 7 - - - - 10 Cloudy - 16.7 1017.9 0.0
12/09:38pm SSW 6 7 - - - - 10 Partly cloudy - 16.6 1017.9 0.0
12/09:30pm SW 7 8 - - - - 10 Partly cloudy - 16.6 1017.9 0.0
12/09:00pm SW 6 7 - - - - 10 Partly cloudy - 16.4 1018.1 0.0
12/08:30pm SSW 6 8 - - - - 10 - - 16.5 1018.0 0.0
12/08:00pm SSW 7 7 - - - - 10 - - 17.0 1017.9 0.0
12/07:30pm SE 5 6 - - - - 10 - - 17.3 1017.7 0.0
12/07:00pm SSE 5 6 - - - - 10 - - 17.6 1017.5 0.0
12/06:30pm SE 6 7 - - - - 10 - - 17.9 1017.2 0.0
12/06:00pm E 7 10 - - - - 10 - - 19.9 1016.8 0.0
12/05:30pm ESE 6 8 - - - - 10 - - 21.1 1016.7 0.0
12/05:00pm ESE 9 11 - - - - 10 - - 22.0 1016.4 0.0
12/04:30pm ESE 9 12 - - - - 10 - - 22.7 1016.1 0.0
12/04:00pm ESE 9 13 - - - - 10 Partly cloudy - 23.4 1016.1 0.0
12/03:30pm ESE 10 14 - - - - 10 Partly cloudy - 23.4 1016.1 0.0
12/03:00pm E 10 17 - - - - 10 Partly cloudy - 24.1 1016.0 0.0
12/02:30pm E 11 15 - - - - 10 - - 23.5 1016.1 0.0
12/02:00pm ESE 11 16 - - - - 10 Partly cloudy - 24.1 1016.5 0.0
12/01:30pm ESE 11 15 - - - - 10 Partly cloudy - 24.0 1016.9 0.0
12/01:00pm ESE 9 14 - - - - 10 Partly cloudy - 24.0 1017.3 0.0
12/12:30pm ESE 9 13 - - - - 10 - - 24.0 1017.9 0.0
12/12:00pm E 8 12 - - - - 10 Cloudy - 24.8 1018.4 0.0
12/11:30am ESE 8 12 - - - - 10 Partly cloudy - 23.3 1018.9 0.0
12/11:00am SE 9 13 - - - - 10 Partly cloudy - 24.8 1019.2 0.0
12/10:30am ESE 8 12 - - - - 10 Partly cloudy - 22.1 1019.6 0.0
12/10:00am SSE 7 10 - - - - 10 Partly cloudy - 21.3 1019.9 0.0
12/09:30am SSE 6 9 - - - - 10 Partly cloudy - 19.8 1020.0 0.0
12/09:00am S 9 11 - - - - 10 Cloudy - 19.8 1019.7 0.0
12/08:30am SSE 8 11 - - - - 10 Partly cloudy - 19.3 1019.5 0.0
12/08:04am S 7 9 - - - - 10 Partly cloudy - 18.5 1019.4 0.0
12/08:00am S 7 8 - - - - 10 Partly cloudy - 18.5 1019.4 0.0
12/07:40am SSE 3 5 - - - - 10 Partly cloudy - 17.2 1019.4 0.0
12/07:30am SSW 5 6 - - - - 10 Partly cloudy - 16.5 1019.2 0.0
12/07:00am S 5 7 - - - - 10 Partly cloudy - 16.1 1019.1 0.0
12/06:30am SSE 6 8 - - - - 10 Partly cloudy - 16.3 1018.7 0.0
12/06:00am SSE 6 8 - - - - 10 Mostly clear - 16.2 1018.4 0.0
12/05:30am SSE 8 11 - - - - 10 Partly cloudy - 16.3 1018.0 0.0
12/05:00am S 7 9 - - - - 10 Partly cloudy - 16.4 1017.9 0.0
12/04:30am S 7 9 - - - - 10 Partly cloudy - 16.9 1018.0 0.0
12/04:00am S 7 8 - - - - 10 Partly cloudy - 16.9 1018.1 0.0
12/03:30am S 6 7 - - - - 10 Partly cloudy - 16.9 1018.3 0.0
12/03:00am SSE 7 13 - - - - 10 Mostly cloudy Recent precip. 17.3 1018.5 0.0
12/02:30am SSW 5 7 - - - - 8 Partly cloudy - 17.4 1018.7 0.0
12/02:00am SSE 5 8 - - - - 10 Partly cloudy - 17.8 1019.2 0.0
12/01:30am S 5 7 - - - - 10 Partly cloudy - 17.8 1019.4 0.0
12/01:00am SSE 7 10 - - - - 10 Partly cloudy - 18.1 1019.7 0.0
12/12:30am S 7 9 - - - - 10 Partly cloudy - 18.0 1020.0 0.0
12/12:00am S 8 10 - - - - 10 Cloudy - 17.8 1020.2 0.0
 
Date/Time
EST
Wind Sea
Height
m
Swell Vis
km
Cloud Weather Temp
°C
Press
MSL
hPa
Rain since
9am
mm
Dir  Spd
kts
Gust
kts
Height
m
Period
s
Dir
11/11:30pm SSE 7 9 - - - - 10 Partly cloudy - 17.8 1020.4 0.0
11/11:00pm S 7 9 - - - - 10 Partly cloudy - 18.2 1020.4 0.0
11/10:30pm SSE 7 9 - - - - 10 Partly cloudy - 18.4 1020.5 0.0
11/10:00pm S 7 9 - - - - 10 Partly cloudy - 18.5 1020.7 0.0
11/09:30pm SSE 7 9 - - - - 10 Partly cloudy - 18.6 1020.6 0.0
11/09:00pm S 6 8 - - - - 10 Mostly cloudy - 18.5 1020.6 0.0
11/08:30pm SSE 7 9 - - - - 10 Partly cloudy - 18.9 1020.5 0.0
11/08:00pm SE 6 8 - - - - 10 Partly cloudy - 18.6 1020.2 0.0
11/07:30pm SE 4 5 - - - - 10 Partly cloudy - 17.6 1020.2 0.0
11/07:00pm ESE 7 10 - - - - 10 - - 17.6 1019.6 0.0
11/06:30pm ESE 9 12 - - - - 10 Partly cloudy - 18.5 1019.3 0.0
11/06:00pm SE 10 14 - - - - 10 - - 18.9 1019.1 0.0
11/05:30pm SE 12 17 - - - - 10 Partly cloudy - 19.5 1018.8 0.0
11/05:00pm ESE 12 17 - - - - 10 Partly cloudy - 20.8 1018.6 0.0
11/04:30pm SE 13 18 - - - - 10 Partly cloudy - 21.4 1018.6 0.0
11/04:00pm SE 15 19 - - - - 10 Partly cloudy - 21.9 1018.7 0.0
11/03:30pm SE 15 21 - - - - 10 Partly cloudy - 22.5 1018.7 0.0
11/03:00pm ESE 15 21 - - - - 10 Mostly clear - 22.8 1018.7 0.0
11/02:30pm ESE 13 19 - - - - 10 Cloudy - 23.5 1019.0 0.0
11/02:00pm SE 16 22 - - - - 10 Cloudy - 23.1 1019.1 0.0
11/01:30pm ESE 15 21 - - - - 10 Cloudy - 23.9 1019.4 0.0
11/01:00pm ESE 14 19 - - - - 10 Partly cloudy - 23.7 1019.7 0.0
11/12:30pm ESE 13 17 - - - - 10 Partly cloudy - 23.0 1020.0 0.0
11/12:00pm SE 14 18 - - - - 10 Mostly clear - 24.0 1020.3 0.0
11/11:30am SE 14 18 - - - - 10 Partly cloudy - 23.2 1020.6 0.0
11/11:00am ESE 12 17 - - - - 10 Partly cloudy - 22.9 1020.7 0.0
11/10:30am ESE 11 16 - - - - 10 Partly cloudy - 22.3 1020.9 0.0
11/10:00am ESE 13 20 - - - - 10 Partly cloudy - 22.2 1020.9 0.0
11/09:30am SE 12 16 - - - - 10 Partly cloudy - 22.7 1020.8 0.0
11/09:00am SE 10 14 - - - - 10 Mostly clear - 22.0 1020.7 0.0
11/08:30am SSE 8 10 - - - - 10 - - 19.7 1020.5 0.0
11/08:00am S 7 9 - - - - 10 - - 17.8 1020.3 0.0
11/07:30am SSW 5 6 - - - - 10 - - 15.5 1020.3 0.0
11/07:00am SSW 5 6 - - - - 10 - - 13.8 1020.1 0.0
11/06:30am SW 6 7 - - - - 10 - - 14.0 1020.0 0.0
11/06:00am SW 6 8 - - - - 10 Mostly clear - 14.1 1019.5 0.0
11/05:30am S 7 9 - - - - 10 Partly cloudy - 15.5 1019.1 0.0
11/05:00am S 7 9 - - - - 10 Partly cloudy - 14.9 1019.1 0.0
11/04:30am SSW 7 9 - - - - 10 Cloudy - 14.6 1019.0 0.0
11/04:00am SW 5 6 - - - - 10 - - 13.1 1019.1 0.0
11/03:30am SSW 5 6 - - - - 10 Partly cloudy - 13.4 1019.4 0.0
11/03:00am SSW 6 7 - - - - 10 Mostly clear - 13.9 1019.6 0.0
11/02:30am S 7 9 - - - - 10 Partly cloudy - 15.1 1019.8 0.0
11/02:00am S 8 12 - - - - 10 Partly cloudy - 16.1 1020.2 0.0
11/01:30am S 8 12 - - - - 10 Partly cloudy - 16.5 1020.4 0.0
11/01:00am SSW 6 7 - - - - 10 Partly cloudy - 15.0 1020.6 0.0
11/12:30am SSW 5 6 - - - - 10 Partly cloudy - 14.9 1020.8 0.0
11/12:00am S 5 7 - - - - 10 Partly cloudy - 14.8 1021.0 0.0
 
Date/Time
EST
Wind Sea
Height
m
Swell Vis
km
Cloud Weather Temp
°C
Press
MSL
hPa
Rain since
9am
mm
Dir  Spd
kts
Gust
kts
Height
m
Period
s
Dir
10/11:30pm SSW 5 6 - - - - 10 Partly cloudy - 14.8 1021.0 0.0
10/11:00pm SSW 5 6 - - - - 10 Partly cloudy - 14.5 1021.2 0.0
10/10:30pm S 5 7 - - - - 10 Partly cloudy - 15.3 1021.4 0.0
10/10:00pm SSW 6 7 - - - - 10 Partly cloudy - 15.3 1021.5 0.0
10/09:30pm S 7 9 - - - - 10 Partly cloudy - 16.5 1021.5 0.0
10/09:00pm SSE 8 10 - - - - 10 Partly cloudy - 17.0 1021.8 0.0
10/08:30pm SSE 8 9 - - - - 10 Partly cloudy - 17.4 1021.7 0.0
10/08:00pm SE 10 14 - - - - 10 Partly cloudy - 18.7 1021.5 0.0
10/07:30pm SE 10 13 - - - - 10 Partly cloudy - 19.1 1021.2 0.0
10/07:00pm SE 10 13 - - - - 10 Partly cloudy - 18.9 1020.9 0.0

Other formats

Comma delimited format used in spreadsheet applications
http://www.bom.gov.au/fwo/IDQ60701/IDQ60701.94365.axf

JavaScript Object Notation format (JSON) in row-major order
http://www.bom.gov.au/fwo/IDQ60701/IDQ60701.94365.json

Data quality

Most of these data are generated automatically and are frequently updated. Quality checks on data are not normally performed. It is possible for incorrect values to appear. Refer to information at About Latest Weather Observations and please check the disclaimer before using these data.